Airfield :







YOU CAN JOIN US ON...

 
LOGIN :

Register | Disclaimer

   EN    FR    IT 

 









Legend :    VFR   Marginal VFR   IFR   Intensive IFR   Very Intensive IFR
Visi :
Ceiling :
>= 8 km
>= 3000ft
5 to 8 km
1000 to 3000 ft
1500m to 5 km
500 to 1000 ft
800 to 1500m
200 to 500 ft
< 800m
< 200 ft
Symbols :   Thunderstorms  Fog  Heavy snow  Heavy precipitations  Wind > 20 kt






- Airport Elevation : 193 ft
- IATA code : ZBF


CZBF - Bathurst

CURRENT METAR :
  • 220906Z AUTO 30005KT 9SM BKN025 BKN033 OVC040 11/08 A3008 RMK SLP188

EXPIRED METARs :
  • 220846Z AUTO 31004KT 270V360 9SM BKN021 BKN026 OVC036 10/09 A3006 RMK PRESRR SLP184
  • 220841Z AUTO 31003KT 270V020 9SM SCT021 BKN026 BKN036 OVC047 10/09 A3006 RMK SLP182
  • 220830Z AUTO 35004KT 250V020 9SM BKN021 BKN037 OVC047 11/09 A3005 RMK SLP180
  • 220800Z AUTO 26009KT 220V280 9SM SCT025 SCT031 BKN038 OVC047 11/09 A3004 RMK SLP175
  • 220700Z AUTO 25006KT 210V280 9SM SCT033 SCT042 SCT049 11/09 A3002 RMK SLP169

TAF TAF CZBF
Valid from the 22 at 09:00 until the 22 at 21:00 UTC


220838Z 2209/2221 26008KT P6SM SCT020 OVC040
TEMPO 2209/2214 BKN020 OVC040
BECMG 2209/2211 30008KT
FM221400 28010KT P6SM BKN030 RMK FCST BASED ON AUTO OBS. NXT FCST BY 221400Z
CZQM FIR / North America



MET'MAP, your aeronautical weather chart ! - Copyright ORBIFLY December 2007 - Disclaimer

ORBIFLY MET'MAP TEAM :

Programming & Development : Alexandra Zaïnal
Concept & original design : Baudouin d'Aumeries
Assistance for programming : Marc-Olivier Méhu
Technical & hardware support : Manuel Goepfert

Contact : metmap@orbifly.com




SOURCES & CREDITS :

   NOAA